| time (UTC) | temp F | wind direction | speed knots | gust knots | rain 1hr in | rain 24hr in | rain mn in | humidity % | barometer mb |
| 20260502161704 | 70 | 104 | 2.6 | 4.3 | 0.00 | 0.00 | 0.00 | 51 | 1010.0 |
| 20260502161204 | 71 | 97 | 1.7 | 4.3 | 0.00 | 0.00 | 0.00 | 51 | 1010.0 |
| 20260502160704 | 71 | 116 | 2.6 | 5.2 | 0.00 | 0.00 | 0.00 | 49 | 1010.0 |
| 20260502160205 | 71 | 83 | 2.6 | 5.2 | 0.00 | 0.00 | 0.00 | 49 | 1010.0 |
| 20260502151204 | 73 | 76 | 1.7 | 8.7 | 0.00 | 0.00 | 0.00 | 46 | 1010.6 |
| 20260502150703 | 73 | 104 | 2.6 | 8.7 | 0.00 | 0.00 | 0.00 | 46 | 1010.8 |
| 20260502130205 | 73 | 116 | 0.9 | 3.5 | 0.00 | 0.00 | 0.00 | 45 | 1012.5 |
| 20260502123205 | 72 | 124 | 1.7 | 4.3 | 0.00 | 0.00 | 0.00 | 46 | 1012.9 |
| 20260502122708 | 72 | 209 | 1.7 | 4.3 | 0.00 | 0.00 | 0.00 | 46 | 1013.0 |
| 20260502122205 | 72 | 190 | 0.9 | 4.3 | 0.00 | 0.00 | 0.00 | 46 | 1013.0 |
| 20260502121704 | 71 | 97 | 0.9 | 4.3 | 0.00 | 0.00 | 0.00 | 49 | 1013.0 |
| 20260502121205 | 71 | 111 | 0.9 | 4.3 | 0.00 | 0.00 | 0.00 | 49 | 1013.1 |
| 20260502120704 | 70 | 110 | 0.9 | 4.3 | 0.00 | 0.00 | 0.00 | 48 | 1013.2 |
| 20260502120204 | 70 | 248 | 0.9 | 4.3 | 0.00 | 0.00 | 0.00 | 48 | 1013.2 |
| 20260502115704 | 71 | 230 | 1.7 | 4.3 | 0.00 | 0.00 | 0.00 | 46 | 1013.3 |
| 20260502115204 | 71 | 93 | 0.9 | 4.3 | 0.00 | 0.00 | 0.00 | 46 | 1013.4 |
| 20260502114706 | 71 | 157 | 1.7 | 3.5 | 0.00 | 0.00 | 0.00 | 46 | 1013.6 |
| 20260502114206 | 70 | 104 | 0.9 | 3.5 | 0.00 | 0.00 | 0.00 | 48 | 1013.6 |
| 20260502113710 | 70 | 106 | 1.7 | 3.5 | 0.00 | 0.00 | 0.00 | 48 | 1013.7 |
| 20260502113204 | 69 | 252 | 0.9 | 2.6 | 0.00 | 0.00 | 0.00 | 50 | 1013.7 |
| 20260502112705 | 69 | 258 | 0.9 | 4.3 | 0.00 | 0.00 | 0.00 | 49 | 1013.7 |
| 20260502112204 | 68 | 258 | 0.9 | 4.3 | 0.00 | 0.00 | 0.00 | 47 | 1013.7 |
| 20260502111705 | 68 | 258 | 0.0 | 3.5 | 0.00 | 0.00 | 0.00 | 48 | 1013.8 |
| 20260502111204 | 68 | 254 | 0.9 | 4.3 | 0.00 | 0.00 | 0.00 | 52 | 1013.8 |
| 20260502110205 | 68 | 104 | 0.0 | 4.3 | 0.00 | 0.00 | 0.00 | 55 | 1014.3 |
| 20260502105704 | 67 | 104 | 1.7 | 2.6 | 0.00 | 0.00 | 0.00 | 54 | 1014.2 |
| 20260502105214 | 67 | 240 | 0.9 | 3.5 | 0.00 | 0.00 | 0.00 | 57 | 1014.2 |
| 20260502104705 | 67 | 269 | 0.0 | 3.5 | 0.00 | 0.00 | 0.00 | 55 | 1014.4 |
| 20260502104204 | 67 | 271 | 1.7 | 4.3 | 0.00 | 0.00 | 0.00 | 55 | 1014.3 |
| 20260502103705 | 67 | 158 | 0.9 | 4.3 | 0.00 | 0.00 | 0.00 | 56 | 1014.4 |
| 20260502103205 | 66 | 240 | 0.9 | 4.3 | 0.00 | 0.00 | 0.00 | 58 | 1014.4 |
| 20260502102704 | 66 | 255 | 1.7 | 3.5 | 0.00 | 0.00 | 0.00 | 57 | 1014.5 |
| 20260502101205 | 67 | 145 | 0.9 | 2.6 | 0.00 | 0.00 | 0.00 | 58 | 1014.6 |
| 20260502100705 | 67 | 154 | 0.9 | 3.5 | 0.00 | 0.00 | 0.00 | 57 | 1014.7 |
| 20260502100205 | 67 | 141 | 0.0 | 3.5 | 0.00 | 0.00 | 0.00 | 60 | 1014.7 |
| 20260502090704 | 61 | 233 | 0.0 | 4.3 | 0.00 | 0.00 | 0.00 | 70 | 1015.1 |
| 20260502070704 | 53 | 219 | 0.9 | 3.5 | 0.00 | 0.00 | 0.00 | 82 | 1015.8 |
| 20260502070205 | 53 | 214 | 1.7 | 3.5 | 0.00 | 0.00 | 0.00 | 82 | 1015.7 |
| 20260502065705 | 53 | 214 | 0.0 | 3.5 | 0.00 | 0.00 | 0.00 | 82 | 1015.7 |
| 20260502065205 | 53 | 212 | 1.7 | 3.5 | 0.00 | 0.00 | 0.00 | 81 | 1015.7 |
| 20260502064704 | 53 | 224 | 1.7 | 5.2 | 0.00 | 0.00 | 0.00 | 81 | 1015.7 |
| 20260502063704 | 53 | 214 | 0.9 | 5.2 | 0.00 | 0.00 | 0.00 | 80 | 1015.6 |
| 20260502063235 | 52 | 240 | 2.6 | 3.5 | 0.00 | 0.00 | 0.00 | 80 | 1015.6 |
| 20260502062705 | 52 | 217 | 0.9 | 3.5 | 0.00 | 0.00 | 0.00 | 79 | 1015.6 |
| 20260502061706 | 52 | 171 | 0.9 | 2.6 | 0.00 | 0.00 | 0.00 | 79 | 1015.5 |
| 20260502061205 | 52 | 179 | 0.0 | 3.5 | 0.00 | 0.00 | 0.00 | 79 | 1015.6 |
| 20260502060704 | 52 | 179 | 0.9 | 3.5 | 0.00 | 0.00 | 0.00 | 79 | 1015.7 |
| 20260502060204 | 52 | 179 | 0.9 | 3.5 | 0.00 | 0.00 | 0.00 | 78 | 1015.6 |
| 20260502055704 | 52 | 179 | 0.9 | 1.7 | 0.00 | 0.00 | 0.00 | 78 | 1015.6 |
| 20260502055204 | 52 | 178 | 0.0 | 1.7 | 0.00 | 0.00 | 0.00 | 78 | 1015.6 |
| 20260502054705 | 51 | 178 | 0.0 | 1.7 | 0.00 | 0.00 | 0.00 | 78 | 1015.5 |
| 20260502053705 | 51 | 178 | 0.0 | 2.6 | 0.00 | 0.00 | 0.00 | 78 | 1015.6 |
| 20260502052705 | 51 | 178 | 0.0 | 2.6 | 0.00 | 0.00 | 0.00 | 78 | 1015.7 |
| 20260502052205 | 51 | 178 | 0.9 | 1.7 | 0.00 | 0.00 | 0.00 | 79 | 1015.7 |
| 20260502050706 | 51 | 178 | 0.0 | 1.7 | 0.00 | 0.00 | 0.00 | 79 | 1015.6 |
| 20260502050204 | 51 | 178 | 0.0 | 1.7 | 0.00 | 0.00 | 0.00 | 79 | 1015.7 |
| 20260502045704 | 51 | 178 | 0.0 | 2.6 | 0.00 | 0.00 | 0.00 | 79 | 1015.7 |
| 20260502045204 | 51 | 178 | 0.0 | 2.6 | 0.00 | 0.00 | 0.00 | 79 | 1015.6 |
| 20260502044704 | 51 | 178 | 0.0 | 2.6 | 0.00 | 0.00 | 0.00 | 79 | 1015.6 |
| 20260502044205 | 51 | 178 | 0.9 | 1.7 | 0.00 | 0.00 | 0.00 | 80 | 1015.7 |
| 20260502043704 | 51 | 173 | 0.0 | 1.7 | 0.00 | 0.00 | 0.00 | 80 | 1015.6 |
| 20260502043205 | 51 | 173 | 0.0 | 1.7 | 0.00 | 0.00 | 0.00 | 80 | 1015.6 |
| 20260502042705 | 51 | 173 | 0.0 | 1.7 | 0.00 | 0.00 | 0.00 | 80 | 1015.6 |
| 20260502042204 | 51 | 173 | 0.0 | 2.6 | 0.00 | 0.00 | 0.00 | 80 | 1015.5 |
| 20260502041704 | 51 | 173 | 0.0 | 2.6 | 0.00 | 0.00 | 0.00 | 80 | 1015.5 |
| 20260502041205 | 51 | 173 | 0.0 | 2.6 | 0.00 | 0.00 | 0.00 | 81 | 1015.6 |
| 20260502040704 | 51 | 175 | 0.9 | 1.7 | 0.00 | 0.00 | 0.00 | 81 | 1015.6 |
| 20260502040204 | 51 | 175 | 0.0 | 1.7 | 0.00 | 0.00 | 0.00 | 81 | 1015.6 |
| 20260502035704 | 51 | 175 | 0.0 | 1.7 | 0.00 | 0.00 | 0.00 | 81 | 1015.5 |
| 20260502035204 | 51 | 175 | 0.0 | 1.7 | 0.00 | 0.00 | 0.00 | 81 | 1015.6 |
| 20260502034704 | 51 | 175 | 0.0 | 0.9 | 0.00 | 0.00 | 0.00 | 82 | 1015.7 |
| 20260502034205 | 51 | 175 | 0.0 | 0.9 | 0.00 | 0.00 | 0.00 | 82 | 1015.7 |
| 20260502033710 | 52 | 175 | 0.0 | 2.6 | 0.00 | 0.00 | 0.00 | 82 | 1015.8 |
| 20260502033205 | 52 | 175 | 0.0 | 2.6 | 0.00 | 0.00 | 0.00 | 82 | 1015.8 |
| 20260502032705 | 52 | 175 | 0.0 | 2.6 | 0.00 | 0.00 | 0.00 | 82 | 1015.9 |
| 20260502032204 | 52 | 175 | 0.0 | 1.7 | 0.00 | 0.00 | 0.00 | 82 | 1015.9 |
| 20260502031705 | 52 | 175 | 0.0 | 1.7 | 0.00 | 0.00 | 0.00 | 82 | 1015.9 |
| 20260502031204 | 52 | 175 | 0.0 | 1.7 | 0.00 | 0.00 | 0.00 | 82 | 1015.9 |
| 20260502030703 | 52 | 175 | 0.0 | 2.6 | 0.00 | 0.00 | 0.00 | 82 | 1015.8 |
| 20260502030204 | 52 | 175 | 0.0 | 3.5 | 0.00 | 0.00 | 0.00 | 82 | 1015.9 |
| 20260502025704 | 52 | 175 | 0.0 | 3.5 | 0.00 | 0.00 | 0.00 | 83 | 1015.8 |
| 20260502025205 | 52 | 175 | 0.9 | 3.5 | 0.00 | 0.00 | 0.00 | 83 | 1015.9 |
| 20260502024704 | 52 | 175 | 0.0 | 3.5 | 0.00 | 0.00 | 0.00 | 83 | 1015.9 |
| 20260502024204 | 52 | 175 | 0.0 | 3.5 | 0.00 | 0.00 | 0.00 | 83 | 1015.9 |
| 20260502023704 | 52 | 173 | 0.0 | 1.7 | 0.00 | 0.00 | 0.00 | 83 | 1015.9 |
| 20260502023205 | 52 | 173 | 0.0 | 1.7 | 0.00 | 0.00 | 0.00 | 83 | 1015.8 |
| 20260502022704 | 53 | 173 | 0.0 | 1.7 | 0.00 | 0.00 | 0.00 | 83 | 1015.9 |
| 20260502022205 | 53 | 173 | 0.0 | 0.9 | 0.00 | 0.00 | 0.00 | 83 | 1015.8 |
| 20260502021705 | 53 | 173 | 0.0 | 0.9 | 0.00 | 0.00 | 0.00 | 83 | 1015.9 |
| 20260502021204 | 53 | 173 | 0.0 | 0.9 | 0.00 | 0.00 | 0.00 | 83 | 1015.8 |
| 20260502020704 | 53 | 173 | 0.0 | 1.7 | 0.00 | 0.00 | 0.00 | 83 | 1015.8 |
| 20260502015704 | 53 | 173 | 0.0 | 1.7 | 0.00 | 0.00 | 0.00 | 83 | 1015.9 |
| 20260502015205 | 53 | 173 | 0.0 | 1.7 | 0.00 | 0.00 | 0.00 | 82 | 1016.0 |
| 20260502014706 | 53 | 173 | 0.0 | 0.9 | 0.00 | 0.00 | 0.00 | 82 | 1016.0 |
| 20260502014204 | 53 | 173 | 0.0 | 0.9 | 0.00 | 0.00 | 0.00 | 82 | 1016.0 |
| 20260502013705 | 53 | 173 | 0.0 | 1.7 | 0.00 | 0.00 | 0.00 | 82 | 1016.1 |
| 20260502013204 | 54 | 173 | 0.0 | 1.7 | 0.00 | 0.00 | 0.00 | 82 | 1016.2 |
| 20260502012714 | 54 | 173 | 0.0 | 0.9 | 0.00 | 0.00 | 0.00 | 82 | 1016.3 |
| 20260502012204 | 54 | 173 | 0.0 | 1.7 | 0.00 | 0.00 | 0.00 | 82 | 1016.3 |
| 20260502011705 | 54 | 173 | 0.0 | 1.7 | 0.00 | 0.00 | 0.00 | 81 | 1016.4 |
| 20260502011205 | 54 | 173 | 0.0 | 1.7 | 0.00 | 0.00 | 0.00 | 81 | 1016.4 |
| 20260502010205 | 55 | 173 | 0.0 | 1.7 | 0.00 | 0.00 | 0.00 | 80 | 1016.4 |
| 20260502005707 | 55 | 173 | 0.0 | 1.7 | 0.00 | 0.00 | 0.00 | 80 | 1016.5 |
| 20260502005204 | 55 | 173 | 0.0 | 1.7 | 0.00 | 0.00 | 0.00 | 80 | 1016.7 |
| 20260502004705 | 55 | 173 | 0.9 | 1.7 | 0.00 | 0.00 | 0.00 | 79 | 1016.8 |
| 20260502002703 | 56 | 173 | 0.0 | 2.6 | 0.00 | 0.00 | 0.00 | 77 | 1016.9 |
| 20260502002206 | 56 | 173 | 0.9 | 1.7 | 0.00 | 0.00 | 0.00 | 77 | 1016.9 |
| 20260502001704 | 57 | 172 | 0.9 | 3.5 | 0.00 | 0.00 | 0.00 | 76 | 1017.0 |
| 20260502001204 | 57 | 171 | 0.0 | 3.5 | 0.00 | 0.00 | 0.00 | 76 | 1017.0 |
| 20260502000704 | 57 | 171 | 0.9 | 3.5 | 0.00 | 0.00 | 0.00 | 76 | 1017.1 |
| 20260501235705 | 58 | 171 | 0.0 | 3.5 | 0.00 | 0.00 | 0.00 | 75 | 1017.0 |
| 20260501235205 | 58 | 168 | 0.9 | 2.6 | 0.00 | 0.00 | 0.00 | 74 | 1017.0 |
| 20260501234706 | 58 | 165 | 0.9 | 2.6 | 0.00 | 0.00 | 0.00 | 75 | 1017.1 |
| 20260501234205 | 59 | 158 | 0.9 | 2.6 | 0.00 | 0.00 | 0.00 | 74 | 1017.1 |
| 20260501233705 | 59 | 162 | 0.9 | 2.6 | 0.00 | 0.00 | 0.00 | 74 | 1017.1 |
| 20260501233205 | 59 | 169 | 0.9 | 2.6 | 0.00 | 0.00 | 0.00 | 74 | 1017.2 |
| 20260501232704 | 59 | 169 | 0.9 | 0.9 | 0.00 | 0.00 | 0.00 | 75 | 1017.1 |
| 20260501232205 | 59 | 165 | 0.0 | 1.7 | 0.00 | 0.00 | 0.00 | 74 | 1017.2 |
| 20260501231705 | 59 | 165 | 0.0 | 1.7 | 0.00 | 0.00 | 0.00 | 74 | 1017.1 |
| 20260501231204 | 60 | 165 | 0.0 | 1.7 | 0.00 | 0.00 | 0.00 | 74 | 1017.0 |
| 20260501230704 | 60 | 165 | 0.9 | 1.7 | 0.00 | 0.00 | 0.00 | 74 | 1017.0 |
| 20260501230205 | 60 | 165 | 0.0 | 1.7 | 0.00 | 0.00 | 0.00 | 74 | 1017.2 |
| 20260501225703 | 60 | 164 | 0.0 | 1.7 | 0.00 | 0.00 | 0.00 | 74 | 1017.2 |
| 20260501225204 | 60 | 164 | 0.0 | 2.6 | 0.00 | 0.00 | 0.00 | 74 | 1017.2 |
| 20260501223204 | 61 | 165 | 0.9 | 3.5 | 0.00 | 0.00 | 0.00 | 73 | 1017.2 |
| 20260501222705 | 61 | 165 | 0.9 | 4.3 | 0.00 | 0.00 | 0.00 | 73 | 1017.2 |
| 20260501222205 | 61 | 162 | 0.0 | 4.3 | 0.00 | 0.00 | 0.00 | 73 | 1017.2 |
| 20260501221704 | 62 | 165 | 0.9 | 4.3 | 0.00 | 0.00 | 0.00 | 72 | 1017.2 |
| 20260501221205 | 62 | 169 | 0.9 | 4.3 | 0.00 | 0.00 | 0.00 | 72 | 1017.1 |
| 20260501220704 | 62 | 176 | 0.9 | 5.2 | 0.00 | 0.00 | 0.00 | 72 | 1017.2 |
| 20260501220211 | 63 | 173 | 0.9 | 5.2 | 0.00 | 0.00 | 0.00 | 72 | 1017.1 |
| 20260501215704 | 63 | 172 | 0.0 | 5.2 | 0.00 | 0.00 | 0.00 | 72 | 1017.1 |
| 20260501215204 | 63 | 173 | 0.9 | 3.5 | 0.00 | 0.00 | 0.00 | 72 | 1017.0 |
| 20260501214704 | 63 | 175 | 1.7 | 3.5 | 0.00 | 0.00 | 0.00 | 72 | 1017.1 |
| 20260501214205 | 64 | 178 | 0.9 | 3.5 | 0.00 | 0.00 | 0.00 | 72 | 1017.1 |
| 20260501213705 | 64 | 179 | 0.9 | 3.5 | 0.00 | 0.00 | 0.00 | 71 | 1017.1 |
| 20260501213204 | 64 | 173 | 0.0 | 3.5 | 0.00 | 0.00 | 0.00 | 71 | 1016.9 |
| 20260501212704 | 64 | 173 | 1.7 | 2.6 | 0.00 | 0.00 | 0.00 | 70 | 1016.9 |
| 20260501212204 | 64 | 171 | 0.0 | 2.6 | 0.00 | 0.00 | 0.00 | 70 | 1017.0 |
| 20260501211705 | 64 | 171 | 0.0 | 2.6 | 0.00 | 0.00 | 0.00 | 70 | 1017.0 |
| 20260501211205 | 64 | 171 | 0.0 | 3.5 | 0.00 | 0.00 | 0.00 | 69 | 1017.0 |
| 20260501205704 | 64 | 176 | 0.9 | 5.2 | 0.00 | 0.00 | 0.00 | 69 | 1017.0 |
| 20260501204707 | 65 | 179 | 0.9 | 3.5 | 0.00 | 0.00 | 0.00 | 68 | 1017.0 |
| 20260501204205 | 65 | 175 | 0.9 | 3.5 | 0.00 | 0.00 | 0.00 | 68 | 1017.0 |
| 20260501203204 | 65 | 180 | 1.7 | 2.6 | 0.00 | 0.00 | 0.00 | 68 | 1016.9 |
| 20260501202705 | 65 | 176 | 0.9 | 4.3 | 0.00 | 0.00 | 0.00 | 67 | 1016.8 |
| 20260501202204 | 65 | 175 | 0.9 | 4.3 | 0.00 | 0.00 | 0.00 | 67 | 1016.9 |
| 20260501201705 | 65 | 175 | 0.9 | 2.6 | 0.00 | 0.00 | 0.00 | 67 | 1017.0 |
| 20260501200204 | 66 | 166 | 0.9 | 4.3 | 0.00 | 0.00 | 0.00 | 68 | 1017.0 |
| 20260501195706 | 66 | 154 | 0.9 | 4.3 | 0.00 | 0.00 | 0.00 | 68 | 1016.9 |
| 20260501195205 | 66 | 164 | 0.0 | 4.3 | 0.00 | 0.00 | 0.00 | 67 | 1016.9 |
| 20260501194704 | 66 | 182 | 0.9 | 3.5 | 0.00 | 0.00 | 0.00 | 68 | 1016.8 |
| 20260501194204 | 66 | 200 | 0.9 | 3.5 | 0.00 | 0.00 | 0.00 | 68 | 1016.7 |
| 20260501193706 | 66 | 195 | 0.9 | 5.2 | 0.00 | 0.00 | 0.00 | 68 | 1016.7 |
| 20260501192203 | 67 | 165 | 1.7 | 2.6 | 0.00 | 0.00 | 0.00 | 68 | 1016.5 |
| 20260501191704 | 67 | 165 | 0.0 | 2.6 | 0.00 | 0.00 | 0.00 | 68 | 1016.4 |
| 20260501185704 | 68 | 165 | 0.9 | 5.2 | 0.00 | 0.00 | 0.00 | 65 | 1016.4 |
| 20260501185204 | 68 | 166 | 0.9 | 5.2 | 0.00 | 0.00 | 0.00 | 64 | 1016.4 |
| 20260501184705 | 68 | 155 | 0.9 | 3.5 | 0.00 | 0.00 | 0.00 | 64 | 1016.5 |
| 20260501184205 | 69 | 185 | 0.9 | 3.5 | 0.00 | 0.00 | 0.00 | 64 | 1016.4 |
| 20260501183706 | 69 | 183 | 0.9 | 2.6 | 0.00 | 0.00 | 0.00 | 62 | 1016.4 |
| 20260501183204 | 69 | 196 | 0.9 | 4.3 | 0.00 | 0.00 | 0.00 | 62 | 1016.3 |
| 20260501181706 | 70 | 116 | 1.7 | 3.5 | 0.00 | 0.00 | 0.00 | 60 | 1016.3 |
| 20260501181205 | 70 | 125 | 0.9 | 3.5 | 0.00 | 0.00 | 0.00 | 61 | 1016.3 |
| 20260501180704 | 71 | 110 | 1.7 | 3.5 | 0.00 | 0.00 | 0.00 | 60 | 1016.3 |
| 20260501175708 | 71 | 172 | 1.7 | 3.5 | 0.00 | 0.00 | 0.00 | 59 | 1016.3 |
| 20260501175204 | 72 | 161 | 0.9 | 3.5 | 0.00 | 0.00 | 0.00 | 59 | 1016.3 |
| 20260501174705 | 72 | 138 | 1.7 | 4.3 | 0.00 | 0.00 | 0.00 | 58 | 1016.3 |
| 20260501174204 | 72 | 206 | 1.7 | 4.3 | 0.00 | 0.00 | 0.00 | 58 | 1016.2 |
| 20260501173704 | 73 | 75 | 0.9 | 5.2 | 0.00 | 0.00 | 0.00 | 57 | 1016.2 |
| 20260501173204 | 73 | 178 | 1.7 | 5.2 | 0.00 | 0.00 | 0.00 | 57 | 1016.2 |
| 20260501172205 | 73 | 227 | 1.7 | 5.2 | 0.00 | 0.00 | 0.00 | 57 | 1016.1 |
| 20260501171704 | 73 | 161 | 1.7 | 6.1 | 0.00 | 0.00 | 0.00 | 57 | 1016.1 |
| 20260501171205 | 73 | 96 | 1.7 | 8.7 | 0.00 | 0.00 | 0.00 | 57 | 1016.1 |
| 20260501164704 | 73 | 134 | 2.6 | 6.1 | 0.00 | 0.00 | 0.00 | 58 | 1016.3 |
| 20260501164204 | 73 | 102 | 1.7 | 6.1 | 0.00 | 0.00 | 0.00 | 58 | 1016.3 |
| 20260501163704 | 73 | 186 | 2.6 | 5.2 | 0.00 | 0.00 | 0.00 | 57 | 1016.3 |
| 20260501163204 | 74 | 179 | 1.7 | 5.2 | 0.00 | 0.00 | 0.00 | 57 | 1016.3 |
| 20260501162704 | 74 | 148 | 1.7 | 7.8 | 0.00 | 0.00 | 0.00 | 58 | 1016.2 |
| 20260501162204 | 74 | 241 | 1.7 | 7.8 | 0.00 | 0.00 | 0.00 | 57 | 1016.2 |